createdAt,value
2018-02-18T00:04:02.038Z,23.57
2018-02-18T00:09:03.472Z,22.00
2018-02-18T00:14:04.891Z,21.57
2018-02-18T00:19:06.226Z,21.10
2018-02-18T00:24:07.556Z,22.00
2018-02-18T00:29:08.889Z,19.77
2018-02-18T00:34:10.294Z,20.43
2018-02-18T00:39:11.747Z,22.60
2018-02-18T00:44:13.084Z,22.23
2018-02-18T00:49:14.467Z,21.33
2018-02-18T00:54:15.821Z,21.50
2018-02-18T00:59:17.886Z,21.17
2018-02-18T01:04:19.323Z,21.93
2018-02-18T01:09:21.384Z,21.17
2018-02-18T01:14:22.729Z,21.47
2018-02-18T01:19:24.856Z,18.73
2018-02-18T01:24:26.165Z,21.50
2018-02-18T01:29:27.497Z,21.90
2018-02-18T01:34:28.907Z,21.30
2018-02-18T01:39:30.979Z,21.27
2018-02-18T01:44:32.311Z,20.63
2018-02-18T01:49:33.648Z,20.93
2018-02-18T01:54:35.327Z,21.40
2018-02-18T01:59:36.644Z,21.10
2018-02-18T02:04:38.000Z,19.57
2018-02-18T02:09:39.459Z,19.77
2018-02-18T02:14:41.583Z,20.10
2018-02-18T02:19:42.950Z,21.80
2018-02-18T02:24:45.043Z,19.53
2018-02-18T02:29:46.429Z,20.33
2018-02-18T02:34:47.791Z,19.67
2018-02-18T02:39:49.153Z,20.07
2018-02-18T02:44:50.465Z,19.03
2018-02-18T02:49:51.879Z,18.60
2018-02-18T02:54:53.304Z,18.47
2018-02-18T02:59:54.642Z,19.43
2018-02-18T03:04:55.997Z,19.33
2018-02-18T03:09:57.363Z,19.90
2018-02-18T03:14:58.767Z,18.77
2018-02-18T03:20:00.158Z,17.90
2018-02-18T03:25:02.319Z,17.97
2018-02-18T03:30:03.654Z,17.67
2018-02-18T03:35:05.899Z,18.20
2018-02-18T03:40:07.248Z,19.20
2018-02-18T03:45:09.338Z,18.90
2018-02-18T03:50:10.732Z,18.87
2018-02-18T03:55:12.153Z,17.60
2018-02-18T04:00:20.467Z,18.03
2018-02-18T04:05:21.905Z,17.10
2018-02-18T04:10:23.242Z,19.37
2018-02-18T04:15:24.699Z,17.00
2018-02-18T04:20:26.262Z,17.33
2018-02-18T04:25:27.716Z,17.80
2018-02-18T04:30:34.039Z,18.27
2018-02-18T04:35:35.600Z,17.70
2018-02-18T04:40:37.094Z,18.23
2018-02-18T04:45:38.477Z,18.20
2018-02-18T04:50:39.901Z,17.27
2018-02-18T04:55:42.891Z,18.00
2018-02-18T05:00:44.399Z,17.00
2018-02-18T05:05:45.950Z,15.70
2018-02-18T05:10:47.469Z,16.53
2018-02-18T05:15:48.996Z,17.33
2018-02-18T05:20:50.504Z,17.60
2018-02-18T05:25:52.064Z,16.43
2018-02-18T05:30:53.633Z,16.90
2018-02-18T05:35:55.186Z,17.83
2018-02-18T05:40:56.742Z,16.80
2018-02-18T05:45:58.315Z,17.57
2018-02-18T05:51:00.559Z,15.73
2018-02-18T05:56:02.089Z,16.03
2018-02-18T06:01:03.619Z,15.80
2018-02-18T06:06:05.106Z,16.57
2018-02-18T06:11:06.650Z,16.27
2018-02-18T06:16:08.187Z,16.60
2018-02-18T06:21:09.764Z,15.20
2018-02-18T06:26:16.652Z,17.87
2018-02-18T06:31:18.296Z,16.23
2018-02-18T06:36:20.550Z,15.33
2018-02-18T06:41:22.189Z,15.83
2018-02-18T06:46:23.802Z,14.60
2018-02-18T06:51:26.120Z,15.23
2018-02-18T06:56:27.534Z,15.37
2018-02-18T07:01:29.096Z,14.67
2018-02-18T07:06:31.364Z,14.27
2018-02-18T07:11:32.802Z,14.47
2018-02-18T07:16:35.064Z,13.07
2018-02-18T07:21:36.462Z,14.40
2018-02-18T07:26:37.964Z,15.20
2018-02-18T07:31:40.366Z,15.40
2018-02-18T07:36:41.944Z,13.00
2018-02-18T07:41:43.644Z,14.30
2018-02-18T07:46:45.111Z,13.80
2018-02-18T07:51:46.975Z,13.93
2018-02-18T07:56:48.492Z,14.37
2018-02-18T08:01:50.709Z,13.03
2018-02-18T08:06:52.920Z,11.87
2018-02-18T08:11:54.502Z,11.70
2018-02-18T08:16:56.060Z,11.40
2018-02-18T08:21:57.464Z,12.07
2018-02-18T08:26:59.057Z,11.87
2018-02-18T08:32:01.228Z,10.33
2018-02-18T08:37:02.712Z,10.13
2018-02-18T08:42:04.255Z,9.80
2018-02-18T08:47:05.712Z,9.70
2018-02-18T08:52:07.284Z,9.40
2018-02-18T08:57:08.934Z,10.50
2018-02-18T09:02:10.494Z,11.13
2018-02-18T09:07:12.113Z,10.53
2018-02-18T09:12:13.693Z,9.50
2018-02-18T09:17:15.186Z,10.40
2018-02-18T09:22:16.785Z,10.60
2018-02-18T09:27:18.206Z,10.20
2018-02-18T09:32:19.779Z,10.17
2018-02-18T09:37:21.347Z,9.67
2018-02-18T09:42:22.899Z,9.60
2018-02-18T09:47:25.145Z,9.90
2018-02-18T09:52:26.652Z,8.80
2018-02-18T09:57:28.207Z,10.03
2018-02-18T10:02:30.497Z,8.53
2018-02-18T10:07:32.020Z,9.07
2018-02-18T10:12:34.309Z,8.77
2018-02-18T10:17:36.641Z,8.77
2018-02-18T10:22:38.183Z,9.00
2018-02-18T10:27:40.606Z,9.50
2018-02-18T10:32:42.340Z,8.83
2018-02-18T10:37:44.687Z,10.73
2018-02-18T10:42:46.192Z,9.40
2018-02-18T10:47:47.823Z,9.97
2018-02-18T10:52:49.400Z,10.23
2018-02-18T10:57:50.802Z,10.30
2018-02-18T11:02:52.319Z,11.70
2018-02-18T11:07:53.863Z,13.00
2018-02-18T11:12:55.430Z,12.40
2018-02-18T11:17:57.996Z,11.33
2018-02-18T11:22:59.597Z,13.03
2018-02-18T11:28:01.244Z,11.30
2018-02-18T11:33:02.849Z,12.47
2018-02-18T11:38:04.267Z,12.17
2018-02-18T11:43:05.840Z,11.33
2018-02-18T11:48:07.394Z,13.00
2018-02-18T11:53:08.962Z,11.97
2018-02-18T11:58:10.562Z,11.90
2018-02-18T12:03:12.138Z,11.40
2018-02-18T12:08:13.681Z,12.63
2018-02-18T12:13:15.932Z,12.70
2018-02-18T12:18:17.481Z,13.00
2018-02-18T12:23:18.854Z,12.40
2018-02-18T12:28:20.451Z,13.00
2018-02-18T12:33:21.974Z,12.40
2018-02-18T12:38:24.241Z,14.00
2018-02-18T12:43:25.826Z,12.77
2018-02-18T12:48:27.418Z,13.37
2018-02-18T12:53:28.991Z,14.10
2018-02-18T12:58:30.567Z,13.53
2018-02-18T13:03:32.140Z,12.50
2018-02-18T13:08:34.542Z,14.17
2018-02-18T13:13:36.098Z,13.50
2018-02-18T13:18:37.629Z,13.83
2018-02-18T13:23:39.201Z,13.20
2018-02-18T13:28:40.753Z,12.90
2018-02-18T13:33:43.029Z,12.30
2018-02-18T13:38:44.551Z,12.80
2018-02-18T13:43:46.861Z,13.23
2018-02-18T13:48:49.157Z,12.70
2018-02-18T13:53:50.665Z,12.57
2018-02-18T13:58:52.936Z,13.57
2018-02-18T14:03:54.466Z,11.97
2018-02-18T14:08:56.210Z,13.97
2018-02-18T14:13:57.832Z,12.53
2018-02-18T14:18:59.482Z,12.80
2018-02-18T14:24:01.112Z,13.97
2018-02-18T14:29:02.669Z,13.63
2018-02-18T14:34:04.199Z,14.43
2018-02-18T14:39:05.712Z,18.47
2018-02-18T14:44:25.530Z,13.70
2018-02-18T14:49:45.303Z,14.47
2018-02-18T15:00:33.428Z,15.07
2018-02-18T15:05:34.940Z,14.87
2018-02-18T15:10:37.210Z,14.30
2018-02-18T15:15:38.842Z,14.67
2018-02-18T15:20:41.144Z,15.00
2018-02-18T15:25:42.843Z,16.40
2018-02-18T15:30:45.139Z,14.10
2018-02-18T15:35:46.751Z,14.20
2018-02-18T15:40:49.661Z,16.43
2018-02-18T15:45:51.279Z,14.20
2018-02-18T15:50:52.889Z,14.47
2018-02-18T15:55:54.520Z,14.80
2018-02-18T16:00:56.011Z,13.23
2018-02-18T16:05:57.627Z,15.50
2018-02-18T16:10:59.205Z,15.97
2018-02-18T16:16:00.839Z,15.40
2018-02-18T16:21:02.388Z,14.70
2018-02-18T16:26:04.002Z,14.47
2018-02-18T16:31:06.380Z,15.37
2018-02-18T16:36:07.937Z,17.30
2018-02-18T16:41:10.306Z,13.50
2018-02-18T16:46:11.826Z,14.67
2018-02-18T16:51:13.464Z,25.37
2018-02-18T16:56:15.007Z,17.50
2018-02-18T17:01:16.537Z,15.80
2018-02-18T17:06:18.088Z,19.03
2018-02-18T17:11:19.719Z,14.87
2018-02-18T17:16:21.309Z,18.30
2018-02-18T17:21:22.956Z,17.47
2018-02-18T17:26:24.542Z,14.50
2018-02-18T17:31:26.202Z,14.30
2018-02-18T17:36:27.776Z,14.57
2018-02-18T17:41:29.411Z,14.30
2018-02-18T17:46:31.024Z,14.10
2018-02-18T17:51:32.672Z,15.00
2018-02-18T17:56:34.205Z,14.00
2018-02-18T18:01:35.798Z,13.90
2018-02-18T18:06:37.330Z,14.90
2018-02-18T18:11:38.861Z,15.73
2018-02-18T18:16:40.395Z,15.00
2018-02-18T18:21:41.815Z,15.67
2018-02-18T18:26:44.402Z,14.47
2018-02-18T18:31:45.983Z,20.40
2018-02-18T18:36:47.369Z,17.23
2018-02-18T18:41:48.732Z,14.37
2018-02-18T18:46:50.170Z,15.33
2018-02-18T18:51:51.701Z,15.20
2018-02-18T18:56:53.254Z,16.40
2018-02-18T19:01:54.830Z,37.70
2018-02-18T19:06:57.156Z,23.50
2018-02-18T19:11:58.782Z,14.37
2018-02-18T19:17:00.387Z,14.10
2018-02-18T19:22:01.957Z,14.50
2018-02-18T19:27:03.512Z,15.40
2018-02-18T19:32:05.067Z,13.80
2018-02-18T19:37:06.415Z,12.23
2018-02-18T19:42:08.820Z,14.80
2018-02-18T19:47:10.377Z,12.00
2018-02-18T19:52:12.669Z,10.53
2018-02-18T19:57:14.241Z,11.83
2018-02-18T20:02:15.821Z,11.47
2018-02-18T20:07:17.342Z,11.60
2018-02-18T20:12:18.701Z,11.80
2018-02-18T20:17:20.279Z,13.27
2018-02-18T20:22:21.881Z,12.03
2018-02-18T20:27:23.500Z,11.60
2018-02-18T20:32:25.153Z,13.20
2018-02-18T20:37:26.774Z,11.97
2018-02-18T20:42:29.087Z,12.13
2018-02-18T20:47:30.779Z,12.47
2018-02-18T20:52:32.487Z,13.67
2018-02-18T20:57:34.037Z,13.00
2018-02-18T21:02:35.479Z,13.57
2018-02-18T21:07:37.190Z,13.30
2018-02-18T21:12:38.539Z,13.30
2018-02-18T21:17:40.078Z,13.30
2018-02-18T21:22:41.603Z,11.30
2018-02-18T21:27:43.290Z,13.23
2018-02-18T21:32:44.824Z,12.10
2018-02-18T21:37:46.453Z,14.33
2018-02-18T21:42:48.060Z,10.83
2018-02-18T21:47:49.870Z,11.37
2018-02-18T21:52:51.388Z,11.17
2018-02-18T21:57:52.829Z,11.60
2018-02-18T22:02:55.096Z,11.67
2018-02-18T22:07:56.663Z,13.13
2018-02-18T22:12:58.255Z,11.80
2018-02-18T22:17:59.912Z,11.67
2018-02-18T22:23:02.179Z,12.17
2018-02-18T22:28:03.800Z,12.00
2018-02-18T22:33:05.348Z,11.77
2018-02-18T22:38:06.703Z,12.37
2018-02-18T22:43:08.341Z,11.53
2018-02-18T22:48:09.820Z,12.23
2018-02-18T22:53:11.392Z,12.27
2018-02-18T22:58:13.655Z,12.40
2018-02-18T23:03:15.186Z,12.70
2018-02-18T23:08:16.852Z,12.87
2018-02-18T23:13:18.188Z,13.23
2018-02-18T23:18:20.434Z,12.90
2018-02-18T23:23:22.191Z,12.27
2018-02-18T23:28:24.491Z,12.87
2018-02-18T23:33:25.845Z,12.73
2018-02-18T23:38:27.379Z,12.30
2018-02-18T23:43:28.911Z,12.20
2018-02-18T23:48:30.474Z,11.73
2018-02-18T23:53:32.536Z,12.90
2018-02-18T23:58:33.983Z,11.77
